Time;durP1;ratioP1;P1;durP2;ratioP2;P2;SDS_P1;SDS_P2;PMS_P1;PMS_P2;Temp;Humidity;BMP_temperature;BMP_pressure;BME280_temperature;BME280_humidity;BME280_pressure;Samples;Min_cycle;Max_cycle;Signal;HPM_P1;HPM_P2
2023/12/05 00:01:32;;;;;;;;;;;;;;;4.18;nan;101351.56;5080007;28;19916;-83
2023/12/05 00:03:57;;;;;;;;;;;;;;;4.20;nan;101346.88;5080928;28;19936;-83
2023/12/05 00:06:23;;;;;;;;;;;;;;;4.18;nan;101343.59;5059981;28;19981;-83
2023/12/05 00:08:48;;;;;;;;;;;;;;;4.16;nan;101345.63;5078529;28;19930;-83
2023/12/05 00:11:14;;;;;;;;;;;;;;;4.18;nan;101346.25;5080389;28;19923;-83
2023/12/05 00:13:40;;;;;;;;;;;;;;;4.12;nan;101339.84;5078367;28;19956;-83
2023/12/05 00:16:06;;;;;;;;;;;;;;;4.12;nan;101341.69;5078829;28;19928;-83
2023/12/05 00:18:31;;;;;;;;;;;;;;;4.13;nan;101343.31;5076280;28;19946;-83
2023/12/05 00:20:57;;;;;;;;;;;;;;;4.16;nan;101337.66;5079166;28;19923;-84
2023/12/05 00:23:22;;;;;;;;;;;;;;;4.18;nan;101330.34;5062395;28;21260;-83
2023/12/05 00:25:47;;;;;;;;;;;;;;;4.16;nan;101335.03;5078428;28;19931;-83
2023/12/05 00:28:13;;;;;;;;;;;;;;;4.13;nan;101330.06;5078518;28;19931;-83
2023/12/05 00:30:38;;;;;;;;;;;;;;;4.12;nan;101325.78;5057932;28;20718;-83
2023/12/05 00:33:03;;;;;;;;;;;;;;;4.13;nan;101332.72;5079285;28;19924;-83
2023/12/05 00:35:29;;;;;;;;;;;;;;;4.12;nan;101333.72;5078038;28;19925;-84
2023/12/05 00:37:54;;;;;;;;;;;;;;;4.09;nan;101326.16;5078132;28;19978;-83
2023/12/05 00:40:19;;;;;;;;;;;;;;;4.06;nan;101324.72;5077618;28;19927;-84
2023/12/05 00:42:45;;;;;;;;;;;;;;;4.05;nan;101327.56;5076692;28;19972;-83
2023/12/05 00:45:12;;;;;;;;;;;;;;;4.06;nan;101322.06;5080137;28;19931;-83
2023/12/05 00:47:37;;;;;;;;;;;;;;;4.12;nan;101337.22;5078683;28;20353;-83
2023/12/05 00:50:03;;;;;;;;;;;;;;;4.10;nan;101335.75;5079754;28;19924;-83
2023/12/05 00:52:29;;;;;;;;;;;;;;;4.09;nan;101326.97;5077654;28;19987;-83
2023/12/05 00:54:54;;;;;;;;;;;;;;;4.10;nan;101330.47;5078858;28;20843;-83
2023/12/05 00:57:20;;;;;;;;;;;;;;;4.07;nan;101322.88;5078201;28;19927;-83
2023/12/05 00:59:45;;;;;;;;;;;;;;;4.11;nan;101324.13;5061319;28;19943;-82
2023/12/05 01:02:10;;;;;;;;;;;;;;;4.10;nan;101319.84;5079050;28;20030;-84
2023/12/05 01:04:36;;;;;;;;;;;;;;;4.06;nan;101313.28;5079448;28;19924;-83
2023/12/05 01:07:02;;;;;;;;;;;;;;;4.01;nan;101319.19;5079125;28;19947;-83
2023/12/05 01:09:28;;;;;;;;;;;;;;;4.00;nan;101319.38;5078521;28;20368;-84
2023/12/05 01:11:53;;;;;;;;;;;;;;;3.98;nan;101316.09;5078161;28;19924;-83
2023/12/05 01:14:18;;;;;;;;;;;;;;;4.00;nan;101316.72;5077951;28;20034;-84
2023/12/05 01:16:44;;;;;;;;;;;;;;;3.98;nan;101319.56;5076817;28;20014;-83
2023/12/05 01:19:09;;;;;;;;;;;;;;;3.97;nan;101322.41;5075057;28;20384;-83
2023/12/05 01:21:35;;;;;;;;;;;;;;;3.97;nan;101319.75;5078158;28;19946;-83
2023/12/05 01:24:00;;;;;;;;;;;;;;;3.91;nan;101319.50;5079526;28;19920;-84
2023/12/05 01:26:26;;;;;;;;;;;;;;;3.90;nan;101314.38;5076679;28;20019;-83
2023/12/05 01:28:51;;;;;;;;;;;;;;;3.91;nan;101318.66;5078862;28;19924;-82
2023/12/05 01:31:16;;;;;;;;;;;;;;;3.89;nan;101310.09;5077761;28;19931;-84
2023/12/05 01:33:41;;;;;;;;;;;;;;;3.90;nan;101314.38;5079038;28;20317;-83
2023/12/05 01:36:08;;;;;;;;;;;;;;;3.91;nan;101311.53;5078961;28;20426;-83
2023/12/05 01:38:33;;;;;;;;;;;;;;;3.88;nan;101314.56;5079082;28;20047;-84
2023/12/05 01:40:58;;;;;;;;;;;;;;;3.85;nan;101303.53;5077450;28;19928;-84
2023/12/05 01:43:24;;;;;;;;;;;;;;;3.86;nan;101319.25;5076921;28;20020;-84
2023/12/05 01:45:49;;;;;;;;;;;;;;;3.86;nan;101313.94;5077765;28;20495;-83
2023/12/05 01:48:15;;;;;;;;;;;;;;;3.83;nan;101306.38;5076232;28;19924;-84
2023/12/05 01:50:40;;;;;;;;;;;;;;;3.84;nan;101310.66;5076937;28;19969;-84
2023/12/05 01:53:06;;;;;;;;;;;;;;;3.84;nan;101312.50;5077294;28;19931;-83
2023/12/05 01:55:32;;;;;;;;;;;;;;;3.82;nan;101304.75;5077221;28;19978;-83
2023/12/05 01:57:58;;;;;;;;;;;;;;;3.80;nan;101301.47;5076460;28;19927;-83
2023/12/05 02:00:23;;;;;;;;;;;;;;;3.77;nan;101291.25;5077637;28;20887;-83
2023/12/05 02:02:48;;;;;;;;;;;;;;;3.74;nan;101280.19;5078864;28;20049;-84
2023/12/05 02:05:14;;;;;;;;;;;;;;;3.70;nan;101278.91;5061417;28;19986;-83
2023/12/05 02:07:40;;;;;;;;;;;;;;;3.64;nan;101275.22;5076328;28;20494;-83
2023/12/05 02:10:06;;;;;;;;;;;;;;;3.64;nan;101283.97;5077236;28;19924;-83
2023/12/05 02:12:32;;;;;;;;;;;;;;;3.62;nan;101278.06;5075870;28;20709;-83
2023/12/05 02:14:57;;;;;;;;;;;;;;;3.63;nan;101273.56;5076849;28;19958;-83
2023/12/05 02:17:48;;;;;;;;;;;;;;;3.63;nan;101270.94;5076923;28;19924;-83
2023/12/05 02:20:14;;;;;;;;;;;;;;;3.60;nan;101277.44;5038840;28;19920;-83
2023/12/05 02:22:45;;;;;;;;;;;;;;;3.59;nan;101282.88;5077718;28;19928;-83
2023/12/05 02:25:14;;;;;;;;;;;;;;;3.59;nan;101277.59;5080630;28;19931;-84
2023/12/05 02:27:41;;;;;;;;;;;;;;;3.60;nan;101273.97;5081812;28;19986;-83
2023/12/05 02:30:09;;;;;;;;;;;;;;;3.60;nan;101277.44;5081349;28;19959;-84
2023/12/05 02:32:34;;;;;;;;;;;;;;;3.58;nan;101276.75;5080703;28;20011;-83
2023/12/05 02:34:59;;;;;;;;;;;;;;;3.60;nan;101281.91;5082082;28;19924;-84
2023/12/05 02:37:34;;;;;;;;;;;;;;;3.62;nan;101277.22;5082106;28;20019;-83
2023/12/05 02:40:07;;;;;;;;;;;;;;;3.60;nan;101281.91;5082398;28;19928;-83
2023/12/05 02:42:33;;;;;;;;;;;;;;;3.58;nan;101282.06;5081926;28;19947;-84
2023/12/05 02:45:00;;;;;;;;;;;;;;;3.57;nan;101283.06;5081366;28;19928;-83
2023/12/05 02:47:26;;;;;;;;;;;;;;;3.58;nan;101275.94;5078963;28;19998;-84
2023/12/05 02:49:52;;;;;;;;;;;;;;;3.57;nan;101269.81;5082460;28;21394;-84
2023/12/05 02:52:17;;;;;;;;;;;;;;;3.57;nan;101263.72;5080376;28;19932;-84
2023/12/05 02:54:43;;;;;;;;;;;;;;;3.56;nan;101265.53;5080161;28;19977;-84
2023/12/05 02:57:08;;;;;;;;;;;;;;;3.57;nan;101258.41;5081102;28;19958;-83
2023/12/05 02:59:33;;;;;;;;;;;;;;;3.56;nan;101262.88;5080207;28;19971;-83
2023/12/05 03:01:59;;;;;;;;;;;;;;;3.53;nan;101257.16;5079123;28;20085;-84
2023/12/05 03:04:24;;;;;;;;;;;;;;;3.52;nan;101250.22;5079965;28;20020;-84
2023/12/05 03:06:49;;;;;;;;;;;;;;;3.51;nan;101251.22;5080035;28;20058;-83
2023/12/05 03:09:15;;;;;;;;;;;;;;;3.47;nan;101265.88;5080338;28;19928;-84
2023/12/05 03:11:40;;;;;;;;;;;;;;;3.45;nan;101252.81;5080475;28;19924;-83
2023/12/05 03:14:06;;;;;;;;;;;;;;;3.46;nan;101254.47;5080547;28;20616;-84
2023/12/05 03:16:31;;;;;;;;;;;;;;;3.48;nan;101259.56;5079251;28;20031;-84
2023/12/05 03:18:56;;;;;;;;;;;;;;;3.49;nan;101255.91;5079707;28;20018;-83
2023/12/05 03:21:22;;;;;;;;;;;;;;;3.49;nan;101254.06;5080434;28;19931;-84
2023/12/05 03:23:47;;;;;;;;;;;;;;;3.49;nan;101256.72;5076868;28;19939;-84
2023/12/05 03:26:16;;;;;;;;;;;;;;;3.48;nan;101255.09;5079925;28;19920;-84
2023/12/05 03:28:42;;;;;;;;;;;;;;;3.51;nan;101251.22;5079523;28;20052;-83
2023/12/05 03:31:07;;;;;;;;;;;;;;;3.52;nan;101242.28;5079514;28;20384;-82
2023/12/05 03:33:35;;;;;;;;;;;;;;;3.53;nan;101243.91;5079836;28;20455;-83
2023/12/05 03:36:00;;;;;;;;;;;;;;;3.52;nan;101231.66;5079603;28;19930;-84
2023/12/05 03:38:26;;;;;;;;;;;;;;;3.47;nan;101226.13;5080651;28;19924;-83
2023/12/05 03:40:51;;;;;;;;;;;;;;;3.45;nan;101233.44;5079333;28;19928;-83
2023/12/05 03:43:16;;;;;;;;;;;;;;;3.46;nan;101232.44;5081371;28;19971;-84
2023/12/05 03:45:42;;;;;;;;;;;;;;;3.47;nan;101226.94;5079252;28;20289;-83
2023/12/05 03:48:07;;;;;;;;;;;;;;;3.48;nan;101233.06;5079899;28;20445;-83
2023/12/05 03:50:32;;;;;;;;;;;;;;;3.49;nan;101240.81;5079683;28;20013;-84
2023/12/05 03:52:58;;;;;;;;;;;;;;;3.49;nan;101245.31;5078891;28;19970;-83
2023/12/05 03:55:23;;;;;;;;;;;;;;;3.49;nan;101240.81;5078321;28;19931;-83
2023/12/05 03:57:48;;;;;;;;;;;;;;;3.47;nan;101242.03;5080679;28;20512;-83
2023/12/05 04:00:14;;;;;;;;;;;;;;;3.45;nan;101250.16;5080300;28;19924;-83
2023/12/05 04:02:39;;;;;;;;;;;;;;;3.42;nan;101233.84;5077687;28;19936;-82
2023/12/05 04:05:06;;;;;;;;;;;;;;;3.43;nan;101240.78;5081164;28;19924;-83
2023/12/05 04:07:31;;;;;;;;;;;;;;;3.46;nan;101243.84;5079161;28;19935;-83
2023/12/05 04:09:57;;;;;;;;;;;;;;;3.48;nan;101249.78;5079619;28;19919;-83
2023/12/05 04:12:22;;;;;;;;;;;;;;;3.49;nan;101242.66;5079690;28;20599;-83
2023/12/05 04:14:48;;;;;;;;;;;;;;;3.49;nan;101246.13;5079020;28;20006;-83
2023/12/05 04:17:13;;;;;;;;;;;;;;;3.50;nan;101245.13;5078504;28;19928;-84
2023/12/05 04:19:39;;;;;;;;;;;;;;;3.53;nan;101243.91;5058779;28;19967;-83
2023/12/05 04:22:04;;;;;;;;;;;;;;;3.55;nan;101244.53;5080408;28;19924;-84
2023/12/05 04:24:29;;;;;;;;;;;;;;;3.56;nan;101241.69;5080484;28;19947;-84
2023/12/05 04:26:55;;;;;;;;;;;;;;;3.58;nan;101242.31;5079541;28;19925;-83
2023/12/05 04:29:20;;;;;;;;;;;;;;;3.59;nan;101229.88;5078061;28;20299;-83
2023/12/05 04:31:45;;;;;;;;;;;;;;;3.61;nan;101235.84;5079298;28;20677;-84
2023/12/05 04:34:11;;;;;;;;;;;;;;;3.60;nan;101232.38;5078092;28;20372;-83
2023/12/05 04:36:36;;;;;;;;;;;;;;;3.59;nan;101230.75;5079277;28;19931;-84
2023/12/05 04:39:01;;;;;;;;;;;;;;;3.61;nan;101233.19;5078754;28;20019;-83
2023/12/05 04:41:30;;;;;;;;;;;;;;;3.61;nan;101226.06;5079515;28;20032;-83
2023/12/05 04:43:55;;;;;;;;;;;;;;;3.59;nan;101227.25;5079298;28;20055;-84
2023/12/05 04:46:21;;;;;;;;;;;;;;;3.60;nan;101236.88;5078514;28;20368;-83
2023/12/05 04:48:46;;;;;;;;;;;;;;;3.60;nan;101239.50;5079331;28;20406;-84
2023/12/05 04:51:11;;;;;;;;;;;;;;;3.59;nan;101241.34;5080386;28;19932;-84
2023/12/05 04:53:36;;;;;;;;;;;;;;;3.62;nan;101232.19;5078253;28;20760;-83
2023/12/05 04:56:02;;;;;;;;;;;;;;;3.62;nan;101232.19;5076714;28;19927;-84
2023/12/05 04:58:28;;;;;;;;;;;;;;;3.62;nan;101224.25;5078978;28;19931;-83
2023/12/05 05:00:53;;;;;;;;;;;;;;;3.63;nan;101228.53;5077923;28;19928;-83
2023/12/05 05:03:19;;;;;;;;;;;;;;;3.62;nan;101229.53;5077063;28;19928;-84
2023/12/05 05:05:44;;;;;;;;;;;;;;;3.61;nan;101233.19;5076221;28;19965;-83
2023/12/05 05:08:09;;;;;;;;;;;;;;;3.65;nan;101231.81;5077591;28;21015;-83
2023/12/05 05:10:35;;;;;;;;;;;;;;;3.63;nan;101228.53;5077833;28;19924;-83
2023/12/05 05:13:00;;;;;;;;;;;;;;;3.64;nan;101223.03;5078479;28;19924;-83
2023/12/05 05:15:26;;;;;;;;;;;;;;;3.67;nan;101232.44;5078861;28;19959;-83
2023/12/05 05:17:51;;;;;;;;;;;;;;;3.71;nan;101238.97;5078756;28;19924;-84
2023/12/05 05:20:16;;;;;;;;;;;;;;;3.73;nan;101242.25;5078359;28;19924;-83
2023/12/05 05:22:42;;;;;;;;;;;;;;;3.77;nan;101229.44;5077959;28;19932;-84
2023/12/05 05:25:08;;;;;;;;;;;;;;;3.74;nan;101232.47;5078337;28;19924;-83
2023/12/05 05:27:33;;;;;;;;;;;;;;;3.74;nan;101225.34;5075250;28;19923;-83
2023/12/05 05:29:59;;;;;;;;;;;;;;;3.74;nan;101217.38;5077632;28;21169;-84
2023/12/05 05:32:24;;;;;;;;;;;;;;;3.68;nan;101231.41;5075854;28;19924;-83
2023/12/05 05:34:49;;;;;;;;;;;;;;;3.66;nan;101219.38;5074965;28;20600;-83
2023/12/05 05:37:16;;;;;;;;;;;;;;;3.65;nan;101229.16;5078611;28;19924;-83
2023/12/05 05:39:42;;;;;;;;;;;;;;;3.64;nan;101223.03;5076041;28;19949;-83
2023/12/05 05:42:07;;;;;;;;;;;;;;;3.66;nan;101233.44;5077595;28;19969;-83
2023/12/05 05:44:32;;;;;;;;;;;;;;;3.63;nan;101226.69;5077824;28;19924;-83
2023/12/05 05:46:58;;;;;;;;;;;;;;;3.63;nan;101205.50;5077033;28;20028;-84
2023/12/05 05:49:23;;;;;;;;;;;;;;;3.66;nan;101212.25;5076604;28;19975;-83
2023/12/05 05:51:48;;;;;;;;;;;;;;;3.68;nan;101209.41;5076866;28;20012;-83
2023/12/05 05:54:14;;;;;;;;;;;;;;;3.70;nan;101210.03;5076941;28;19924;-83
2023/12/05 05:56:39;;;;;;;;;;;;;;;3.71;nan;101222.25;5076945;28;19924;-84
2023/12/05 05:59:04;;;;;;;;;;;;;;;3.70;nan;101210.03;5075578;28;19923;-83
2023/12/05 06:01:30;;;;;;;;;;;;;;;3.71;nan;101212.47;5078256;28;19965;-83
2023/12/05 06:03:55;;;;;;;;;;;;;;;3.71;nan;101209.81;5057399;28;20026;-84
2023/12/05 06:06:20;;;;;;;;;;;;;;;3.73;nan;101214.94;5076861;28;19972;-84
2023/12/05 06:08:46;;;;;;;;;;;;;;;3.76;nan;101212.72;5076981;28;19935;-83
2023/12/05 06:11:12;;;;;;;;;;;;;;;3.79;nan;101217.66;5077615;28;19924;-84
2023/12/05 06:13:37;;;;;;;;;;;;;;;3.81;nan;101215.63;5077307;28;19924;-83
2023/12/05 06:16:03;;;;;;;;;;;;;;;3.81;nan;101207.69;5079551;28;19924;-83
2023/12/05 06:18:28;;;;;;;;;;;;;;;3.77;nan;101211.72;5078117;28;19967;-83
2023/12/05 06:20:56;;;;;;;;;;;;;;;3.75;nan;101210.25;5079146;28;19930;-84
2023/12/05 06:23:21;;;;;;;;;;;;;;;3.74;nan;101205.97;5076465;28;19928;-83
2023/12/05 06:25:47;;;;;;;;;;;;;;;3.74;nan;101206.78;5077278;28;19953;-83
2023/12/05 06:28:12;;;;;;;;;;;;;;;3.72;nan;101208.81;5075450;28;19974;-83
2023/12/05 06:30:37;;;;;;;;;;;;;;;3.70;nan;101216.13;5077929;28;20065;-83
2023/12/05 06:33:03;;;;;;;;;;;;;;;3.71;nan;101222.25;5077927;28;19925;-83
2023/12/05 06:35:28;;;;;;;;;;;;;;;3.69;nan;101219.81;5075304;28;20342;-83
2023/12/05 06:37:53;;;;;;;;;;;;;;;3.70;nan;101231.22;5059796;28;20439;-83
2023/12/05 06:40:19;;;;;;;;;;;;;;;3.70;nan;101234.69;5077191;28;19921;-84
2023/12/05 06:42:44;;;;;;;;;;;;;;;3.72;nan;101229.19;5076091;28;19950;-83
2023/12/05 06:45:10;;;;;;;;;;;;;;;3.73;nan;101233.47;5056476;28;19931;-83
2023/12/05 06:47:35;;;;;;;;;;;;;;;3.75;nan;101234.09;5075473;28;19924;-83
2023/12/05 06:50:05;;;;;;;;;;;;;;;3.76;nan;101227.78;5078441;28;19946;-83
2023/12/05 06:52:30;;;;;;;;;;;;;;;3.78;nan;101231.91;5079465;28;19924;-83
2023/12/05 06:54:55;;;;;;;;;;;;;;;3.78;nan;101226.63;5059633;28;20276;-84
2023/12/05 06:57:21;;;;;;;;;;;;;;;3.77;nan;101227.63;5077989;28;19920;-84
2023/12/05 06:59:47;;;;;;;;;;;;;;;3.78;nan;101226.63;5077730;28;19932;-84
2023/12/05 07:02:12;;;;;;;;;;;;;;;3.78;nan;101228.44;5078060;28;19920;-83
2023/12/05 07:04:37;;;;;;;;;;;;;;;3.81;nan;101223.59;5078126;28;19978;-83
2023/12/05 07:07:03;;;;;;;;;;;;;;;3.82;nan;101227.88;5077305;28;19984;-83
2023/12/05 07:09:28;;;;;;;;;;;;;;;3.78;nan;101223.97;5079755;28;19920;-83
2023/12/05 07:11:53;;;;;;;;;;;;;;;3.77;nan;101227.63;5081709;28;20021;-83
2023/12/05 07:14:19;;;;;;;;;;;;;;;3.75;nan;101245.53;5081066;28;19919;-84
2023/12/05 07:16:45;;;;;;;;;;;;;;;3.73;nan;101242.25;5078988;28;19985;-83
2023/12/05 07:19:10;;;;;;;;;;;;;;;3.73;nan;101231.66;5080888;28;19924;-83
2023/12/05 07:21:36;;;;;;;;;;;;;;;3.76;nan;101236.56;5081459;28;19946;-83
2023/12/05 07:24:01;;;;;;;;;;;;;;;3.77;nan;101232.94;5080222;28;19973;-83
2023/12/05 07:26:26;;;;;;;;;;;;;;;3.75;nan;101244.72;5081122;28;19985;-83
2023/12/05 07:28:52;;;;;;;;;;;;;;;3.77;nan;101248.84;5080593;28;20648;-83
2023/12/05 07:31:17;;;;;;;;;;;;;;;3.79;nan;101248.63;5080789;28;19916;-83
2023/12/05 07:33:43;;;;;;;;;;;;;;;3.81;nan;101254.56;5082026;28;20319;-83
2023/12/05 07:36:08;;;;;;;;;;;;;;;3.84;nan;101244.41;5089163;28;19916;-83
2023/12/05 07:38:34;;;;;;;;;;;;;;;3.87;nan;101243.19;5088090;28;19963;-83
2023/12/05 07:40:59;;;;;;;;;;;;;;;3.89;nan;101235.88;5089631;28;20395;-83
2023/12/05 07:43:24;;;;;;;;;;;;;;;3.91;nan;101241.78;5088151;28;20776;-83
2023/12/05 07:45:50;;;;;;;;;;;;;;;3.92;nan;101240.78;5093734;28;21041;-84
2023/12/05 07:48:15;;;;;;;;;;;;;;;3.93;nan;101243.22;5085329;28;19916;-83
2023/12/05 07:50:41;;;;;;;;;;;;;;;3.95;nan;101248.38;5089918;28;19920;-83
2023/12/05 07:53:06;;;;;;;;;;;;;;;3.98;nan;101241.84;5090485;28;20410;-83
2023/12/05 07:55:31;;;;;;;;;;;;;;;3.99;nan;101238.19;5089088;28;19926;-83
2023/12/05 07:57:57;;;;;;;;;;;;;;;4.01;nan;101238.81;5090615;28;20010;-83
2023/12/05 08:00:22;;;;;;;;;;;;;;;4.04;nan;101239.25;5090969;28;20372;-83
2023/12/05 08:02:47;;;;;;;;;;;;;;;4.05;nan;101240.06;5087591;28;19970;-83
2023/12/05 08:05:13;;;;;;;;;;;;;;;4.05;nan;101245.38;5088583;28;19923;-83
2023/12/05 08:07:38;;;;;;;;;;;;;;;4.05;nan;101250.66;5087743;28;20011;-83
2023/12/05 08:10:05;;;;;;;;;;;;;;;4.09;nan;101251.91;5090257;28;19920;-83
2023/12/05 08:12:30;;;;;;;;;;;;;;;4.11;nan;101249.88;5090948;28;20110;-83
2023/12/05 08:14:55;;;;;;;;;;;;;;;4.11;nan;101255.19;5090957;28;20445;-85
2023/12/05 08:17:20;;;;;;;;;;;;;;;4.14;nan;101252.19;5085624;28;20469;-84
2023/12/05 08:19:46;;;;;;;;;;;;;;;4.12;nan;101252.34;5088528;28;19981;-83
2023/12/05 08:22:11;;;;;;;;;;;;;;;4.15;nan;101257.28;5089957;28;19951;-84
2023/12/05 08:24:36;;;;;;;;;;;;;;;4.14;nan;101252.19;5084950;28;20388;-84
2023/12/05 08:27:02;;;;;;;;;;;;;;;4.15;nan;101243.22;5084807;28;19920;-84
2023/12/05 08:29:27;;;;;;;;;;;;;;;4.18;nan;101250.78;5088569;28;19971;-83
2023/12/05 08:31:52;;;;;;;;;;;;;;;4.16;nan;101240.34;5088482;28;19924;-83
2023/12/05 08:34:18;;;;;;;;;;;;;;;4.19;nan;101241.81;5084118;28;19977;-83
2023/12/05 08:36:45;;;;;;;;;;;;;;;4.15;nan;101245.84;5083981;28;20210;-83
2023/12/05 08:39:11;;;;;;;;;;;;;;;4.18;nan;101250.78;5087951;28;20311;-83
2023/12/05 08:41:37;;;;;;;;;;;;;;;4.20;nan;101260.16;5085318;28;19924;-83
2023/12/05 08:44:02;;;;;;;;;;;;;;;4.19;nan;101249.75;5079391;28;19920;-82
2023/12/05 08:46:27;;;;;;;;;;;;;;;4.16;nan;101247.50;5078909;28;20003;-83
2023/12/05 08:48:52;;;;;;;;;;;;;;;4.19;nan;101241.81;5080285;28;19919;-82
2023/12/05 08:51:18;;;;;;;;;;;;;;;4.22;nan;101242.22;5086096;28;19916;-83
2023/12/05 08:53:43;;;;;;;;;;;;;;;4.22;nan;101242.22;5085035;28;19919;-83
2023/12/05 08:56:09;;;;;;;;;;;;;;;4.24;nan;101239.38;5086404;28;19969;-83
2023/12/05 08:58:34;;;;;;;;;;;;;;;4.23;nan;101237.75;5085399;28;19951;-83
2023/12/05 09:00:59;;;;;;;;;;;;;;;4.24;nan;101244.69;5090441;28;20391;-83
2023/12/05 09:03:25;;;;;;;;;;;;;;;4.26;nan;101242.66;5067554;28;19924;-83
2023/12/05 09:05:50;;;;;;;;;;;;;;;4.32;nan;101244.56;5089971;28;19924;-84
2023/12/05 09:08:16;;;;;;;;;;;;;;;4.36;nan;101242.31;5086316;28;19923;-83
2023/12/05 09:10:41;;;;;;;;;;;;;;;4.41;nan;101240.72;5065174;28;19963;-83
2023/12/05 09:13:07;;;;;;;;;;;;;;;4.46;nan;101235.63;5082892;28;19924;-83
2023/12/05 09:15:32;;;;;;;;;;;;;;;4.49;nan;101237.91;5082099;28;20444;-83
2023/12/05 09:17:58;;;;;;;;;;;;;;;4.51;nan;101243.03;5069408;28;20034;-83
2023/12/05 09:20:23;;;;;;;;;;;;;;;4.53;nan;101233.84;5072639;28;20866;-83
2023/12/05 09:22:48;;;;;;;;;;;;;;;4.57;nan;101238.75;5086713;28;19931;-83
2023/12/05 09:25:14;;;;;;;;;;;;;;;4.59;nan;101228.75;5089344;28;19943;-83
2023/12/05 09:27:39;;;;;;;;;;;;;;;4.65;nan;101235.94;5084458;28;19923;-84
2023/12/05 09:30:05;;;;;;;;;;;;;;;4.69;nan;101237.19;5086524;28;20315;-83
2023/12/05 09:32:30;;;;;;;;;;;;;;;4.73;nan;101235.78;5082589;28;19974;-83
2023/12/05 09:34:55;;;;;;;;;;;;;;;4.72;nan;101236.78;5087527;28;19920;-84
2023/12/05 09:37:21;;;;;;;;;;;;;;;4.73;nan;101238.44;5090190;28;19923;-84
2023/12/05 09:39:46;;;;;;;;;;;;;;;4.77;nan;101234.34;5085656;28;20380;-83
2023/12/05 09:42:13;;;;;;;;;;;;;;;4.80;nan;101231.31;5082641;28;19925;-83
2023/12/05 09:44:42;;;;;;;;;;;;;;;4.84;nan;101224.56;5087215;28;19924;-83
2023/12/05 09:47:09;;;;;;;;;;;;;;;4.84;nan;101228.03;5089236;28;19924;-83
2023/12/05 09:49:34;;;;;;;;;;;;;;;4.87;nan;101229.50;5086168;28;19920;-84
2023/12/05 09:52:00;;;;;;;;;;;;;;;4.91;nan;101230.75;5085268;28;19935;-83
2023/12/05 09:54:26;;;;;;;;;;;;;;;4.94;nan;101227.69;5089924;28;20391;-83
2023/12/05 09:56:53;;;;;;;;;;;;;;;4.98;nan;101231.56;5091074;28;19924;-83
2023/12/05 09:59:19;;;;;;;;;;;;;;;5.02;nan;101222.19;5086328;28;20007;-84
2023/12/05 10:01:46;;;;;;;;;;;;;;;5.07;nan;101214.44;5087130;28;20292;-83
2023/12/05 10:04:15;;;;;;;;;;;;;;;5.12;nan;101222.63;5084202;28;19924;-83
2023/12/05 10:06:41;;;;;;;;;;;;;;;5.19;nan;101222.63;5071884;28;20006;-84
2023/12/05 10:09:08;;;;;;;;;;;;;;;5.20;nan;101220.81;5087857;28;20006;-83
2023/12/05 10:11:33;;;;;;;;;;;;;;;5.24;nan;101220.22;5088085;28;19916;-84
2023/12/05 10:13:59;;;;;;;;;;;;;;;5.28;nan;101228.59;5084111;28;20486;-83
2023/12/05 10:16:26;;;;;;;;;;;;;;;5.32;nan;101211.22;5084230;28;19936;-84
2023/12/05 10:18:52;;;;;;;;;;;;;;;5.33;nan;101218.19;5083273;28;19920;-83
2023/12/05 10:21:17;;;;;;;;;;;;;;;5.33;nan;101215.53;5087349;28;20410;-84
2023/12/05 10:23:43;;;;;;;;;;;;;;;5.32;nan;101216.53;5081999;28;19958;-83
2023/12/05 10:26:08;;;;;;;;;;;;;;;5.31;nan;101212.25;5081702;28;19916;-84
2023/12/05 10:28:47;;;;;;;;;;;;;;;5.37;nan;101211.44;5083968;28;19999;-82
2023/12/05 10:31:16;;;;;;;;;;;;;;;5.31;nan;101205.09;5082453;28;19963;-84
2023/12/05 10:33:41;;;;;;;;;;;;;;;5.32;nan;101209.38;5074654;28;19924;-84
2023/12/05 10:36:13;;;;;;;;;;;;;;;5.27;nan;101198.56;5087242;28;19930;-84
2023/12/05 10:38:41;;;;;;;;;;;;;;;5.27;nan;101203.06;5081114;28;19924;-84
2023/12/05 10:41:06;;;;;;;;;;;;;;;5.29;nan;101199.16;5086726;28;19924;-84
2023/12/05 10:43:32;;;;;;;;;;;;;;;5.35;nan;101197.53;5081205;28;19920;-83
2023/12/05 10:45:57;;;;;;;;;;;;;;;5.39;nan;101202.25;5091902;28;19920;-83
2023/12/05 10:48:23;;;;;;;;;;;;;;;5.43;nan;101192.84;5076991;28;19923;-84
2023/12/05 10:50:49;;;;;;;;;;;;;;;5.44;nan;101201.66;5090820;28;20003;-83
2023/12/05 10:53:15;;;;;;;;;;;;;;;5.42;nan;101190.41;5089965;28;20015;-83
2023/12/05 10:55:41;;;;;;;;;;;;;;;5.41;nan;101191.44;5086636;28;19924;-83
2023/12/05 10:58:07;;;;;;;;;;;;;;;5.46;nan;101187.13;5077048;28;19923;-84
2023/12/05 11:00:34;;;;;;;;;;;;;;;5.50;nan;101186.72;5086421;28;19920;-83
2023/12/05 11:03:02;;;;;;;;;;;;;;;5.53;nan;101187.13;5091110;28;19930;-83
2023/12/05 11:05:27;;;;;;;;;;;;;;;5.55;nan;101185.06;5085094;28;20414;-83
2023/12/05 11:07:53;;;;;;;;;;;;;;;5.59;nan;101186.31;5090566;28;19955;-83
2023/12/05 11:10:18;;;;;;;;;;;;;;;5.58;nan;101174.06;5089488;28;19916;-82
2023/12/05 11:12:48;;;;;;;;;;;;;;;5.57;nan;101177.75;5062420;28;19966;-83
2023/12/05 11:15:16;;;;;;;;;;;;;;;5.62;nan;101177.13;5090886;28;19920;-83
2023/12/05 11:17:45;;;;;;;;;;;;;;;5.69;nan;101178.75;5080048;28;20593;-83
2023/12/05 11:20:10;;;;;;;;;;;;;;;5.81;nan;101178.94;5087439;28;19920;-84
2023/12/05 11:22:51;;;;;;;;;;;;;;;5.85;nan;101187.31;5070638;28;19926;-83
2023/12/05 11:25:34;;;;;;;;;;;;;;;5.88;nan;101181.59;5090785;28;19922;-83
2023/12/05 11:28:06;;;;;;;;;;;;;;;5.85;nan;101172.19;5086573;28;19991;-83
2023/12/05 11:30:31;;;;;;;;;;;;;;;5.82;nan;101179.75;5082229;28;20432;-83
2023/12/05 11:32:59;;;;;;;;;;;;;;;5.86;nan;101167.69;5090503;28;20007;-83
2023/12/05 11:35:40;;;;;;;;;;;;;;;5.89;nan;101170.75;5088965;28;20060;-82
2023/12/05 11:38:12;;;;;;;;;;;;;;;5.96;nan;101166.28;5079914;28;19986;-83
2023/12/05 11:40:39;;;;;;;;;;;;;;;6.00;nan;101172.81;5055510;28;20569;-83
2023/12/05 11:43:05;;;;;;;;;;;;;;;6.01;nan;101168.31;5079553;28;19951;-83
2023/12/05 11:45:31;;;;;;;;;;;;;;;6.10;nan;101171.56;5080388;28;19920;-83
2023/12/05 11:48:01;;;;;;;;;;;;;;;6.19;nan;101160.50;5079244;28;21098;-83
2023/12/05 11:50:26;;;;;;;;;;;;;;;6.23;nan;101167.03;5079586;28;20308;-83
2023/12/05 11:52:52;;;;;;;;;;;;;;;6.29;nan;101165.41;5079677;28;19927;-83
2023/12/05 11:55:18;;;;;;;;;;;;;;;6.32;nan;101167.63;5084769;28;20007;-83
2023/12/05 11:57:43;;;;;;;;;;;;;;;6.41;nan;101168.19;5085295;28;19928;-83
2023/12/05 12:00:12;;;;;;;;;;;;;;;6.45;nan;101161.44;5078887;28;19939;-83
2023/12/05 12:02:37;;;;;;;;;;;;;;;6.47;nan;101167.38;5079565;28;19916;-83
2023/12/05 12:05:06;;;;;;;;;;;;;;;6.51;nan;101161.41;5076816;28;19971;-83
2023/12/05 12:07:33;;;;;;;;;;;;;;;6.50;nan;101159.78;5079543;28;20384;-83
2023/12/05 12:09:58;;;;;;;;;;;;;;;6.52;nan;101154.25;5086978;28;19920;-83
2023/12/05 12:12:24;;;;;;;;;;;;;;;6.56;nan;101150.13;5085636;28;20354;-83
2023/12/05 12:14:49;;;;;;;;;;;;;;;6.55;nan;101151.16;5088121;28;19920;-83
2023/12/05 12:17:15;;;;;;;;;;;;;;;6.57;nan;101152.56;5090711;28;19922;-83
2023/12/05 12:19:40;;;;;;;;;;;;;;;6.58;nan;101150.72;5086228;28;19924;-83
2023/12/05 12:22:10;;;;;;;;;;;;;;;6.58;nan;101153.41;5084803;28;19920;-83
2023/12/05 12:24:36;;;;;;;;;;;;;;;6.56;nan;101152.78;5086592;28;19924;-83
2023/12/05 12:27:03;;;;;;;;;;;;;;;6.55;nan;101151.16;5076871;28;19975;-83
2023/12/05 12:29:28;;;;;;;;;;;;;;;6.55;nan;101148.50;5078016;28;19942;-83
2023/12/05 12:32:10;;;;;;;;;;;;;;;6.54;nan;101144.19;5078085;28;19963;-83
2023/12/05 12:34:36;;;;;;;;;;;;;;;6.52;nan;101143.59;5077052;28;19935;-83
2023/12/05 12:37:02;;;;;;;;;;;;;;;6.53;nan;101145.22;5079807;28;19966;-82
2023/12/05 12:39:29;;;;;;;;;;;;;;;6.48;nan;101142.41;5083631;28;20012;-83
2023/12/05 12:41:55;;;;;;;;;;;;;;;6.43;nan;101144.84;5069463;28;19920;-82
2023/12/05 12:44:21;;;;;;;;;;;;;;;6.39;nan;101143.66;5087105;28;19923;-83
2023/12/05 12:46:47;;;;;;;;;;;;;;;6.38;nan;101150.00;5087814;28;19926;-83
2023/12/05 12:49:12;;;;;;;;;;;;;;;6.34;nan;101142.44;5086756;28;20001;-82
2023/12/05 12:51:38;;;;;;;;;;;;;;;6.29;nan;101150.25;5085971;28;19923;-82
2023/12/05 12:54:05;;;;;;;;;;;;;;;6.25;nan;101146.34;5061599;28;19916;-82
2023/12/05 12:56:34;;;;;;;;;;;;;;;6.22;nan;101144.09;5085417;28;19916;-82
2023/12/05 12:59:03;;;;;;;;;;;;;;;6.20;nan;101143.50;5085115;28;19919;-83
2023/12/05 13:01:28;;;;;;;;;;;;;;;6.19;nan;101144.53;5082576;28;19916;-83